Disclaimer

Please do not use the information listed here in-flight or in-navigation, as they are not provided to us by the airports but are provided by volunteers, so they might be outdated.

Search


Regions


Airport information page

Radio informations:
Tower (TWR) - 118.1 MHz
Automatic Terminal Information Service (ATIS) - 124.05 MHz
Approach (APP) - 123.7 MHz

Airport informations:
Latitude: 42° 41' 42.70" N
Longitude: 023° 24' 22.20" E
Elevation: 1742 feet - 531 meters
Operating hours: 24 hour operations
Operating agency: Civil government, landing fees and diplomatic clearance may be required
Timezone: UTC+2(+3DT) - Last Sunday in March to last Sunday in October
Fuel: Unknown fuel type or whether there is any fuel.

Runway information:
09/27 - 9186 x 147 feet< - >2800 x 45 meters

Recent METARs:
LBSF 172000Z 12008KT 9999 OVC030 01/M03 Q1027 NOSIG
LBSF 172030Z 11007KT 9999 OVC028 01/M03 Q1027 NOSIG
LBSF 172100Z 11006KT 9999 OVC027 01/M03 Q1027 NOSIG

Airport on the map: